KMGC/MGC METAR and TAF weather

Enter ICAO airport designator
Station Type Date Time Source
KMGC METAR 2020/01/26 03:55 UTC NOAA

KMGC 260355Z AUTO 26006KT 3SM -SN OVC007 00/00 A2989 RMK AO2


Station Type Date Time Source
KMGC Decoded METAR 2020/01/26 03:55 UTC NOAA

Station name not available
Jan 25, 2020 - 10:55 PM EST / 2020.01.26 0355 UTC
Wind: from the W (260 degrees) at 7 MPH (6 KT):0
Visibility: 3 mile(s):0
Sky conditions: overcast
Weather: light snow
Temperature: 32 F (0 C)
Windchill: 24 F (-4 C):1
Dew Point: 32 F (0 C)
Relative Humidity: 100%
Pressure (altimeter): 29.89 in. Hg (1012 hPa)
ob: KMGC 260355Z AUTO 26006KT 3SM -SN OVC007 00/00 A2989 RMK AO2
cycle: 4

Station Type Date Time Source
KMGC TAF UTC NOAA

Error!

Example: see airport list